Airfield :
LOGIN :

Register | Disclaimer

   EN    FR    IT 

 










Legend :    VFR   Marginal VFR   IFR   Intensive IFR   Very Intensive IFR
Visi :
Ceiling :
>= 8 km
>= 3000ft
5 to 8 km
1000 to 3000 ft
1500m to 5 km
500 to 1000 ft
800 to 1500m
200 to 500 ft
< 800m
< 200 ft
Symbols :   Thunderstorms  Fog  Heavy snow  Heavy precipitations  Wind > 20 kt
SIGMETs :     Misc.  Thunderstorms  Icing  Turbulence  Mountain Waves  Volcanic Ashes






- Airport Elevation : 24 ft
- IATA code : IBZ


LEIB - Ibiza

CURRENT METAR :
  • 301800Z 10005KT 060V150 9999 FEW023 26/20 Q1010 NOSIG

EXPIRED METARs :
  • 301730Z VRB02KT 9999 FEW020 26/20 Q1010 NOSIG
  • 301700Z 22004KT 170V290 9999 FEW010 27/20 Q1010 NOSIG
  • 301630Z 22004KT 170V260 9999 FEW021 27/20 Q1010 NOSIG
  • 301600Z 23006KT 160V280 9999 FEW021 27/20 Q1010 NOSIG

TAF TAF LEIB
Valid from the 30 at 15:00 until the 01 at 15:00 UTC


301400Z 3015/0115 18009KT 9999 FEW020 TX29/0112Z TN22/0105Z
BECMG 3018/3020 VRB03KT
BECMG 3021/3023 02005KT
BECMG 0102/0104 08010KT
PROB30
TEMPO 0104/0108 BKN014



MET'MAP, your aeronautical weather chart ! - Copyright ORBIFLY December 2007 - Disclaimer

ORBIFLY MET'MAP TEAM :

Programming & Development : Alexandra Zaïnal
Original concept : Baudouin d'Aumeries
Technical & hardware support : Manuel Goepfert
Assistance : Marc-Olivier Méhu




SOURCES & CREDITS :

   NOAA